Terminal Aerodrome Forecast
Issued by NWS

Home | Current Version | Previous Version | Text Only | Print | Product List | Glossary On
Versions: 1 2 3 4 5 6 7 8 9 10
000
FTUS42 KMLB 270500
TAFTIX
TAF
KTIX 270522Z 2706/2806 36004KT P6SM OVC045
      TEMPO 2709/2713 5SM BR BKN010
     FM271500 06006KT P6SM BKN040
     FM280300 06003KT P6SM BKN020 OVC040
      TEMPO 2803/2806 5SM BR BKN012 OVC025
      AMD NOT SKED 2706/2712=

USA.gov is the U.S. government's official web portal to all federal, state and local government web resources and services.